createdAt,value
2019-02-20T17:47:16.607Z,72.86
2019-02-20T17:48:16.226Z,72.44
2019-02-20T17:49:16.216Z,72.24
2019-02-20T17:50:16.267Z,71.73
2019-02-20T17:51:16.200Z,72.38
2019-02-20T17:52:16.187Z,72.27
2019-02-20T17:53:16.185Z,72.99
2019-02-20T17:54:17.232Z,73.23
2019-02-20T17:55:16.152Z,73.68
2019-02-20T17:56:16.140Z,73.71
2019-02-20T17:57:16.139Z,75.35
2019-02-20T17:58:16.131Z,75.59
2019-02-20T17:59:16.108Z,76.21
2019-02-20T18:00:16.110Z,76.45
2019-02-20T18:01:16.086Z,76.51
2019-02-20T18:02:16.080Z,75.76
2019-02-20T18:03:16.078Z,74.91
2019-02-20T18:04:16.055Z,73.85
2019-02-20T18:05:16.046Z,73.54
2019-02-20T18:06:16.036Z,73.02
2019-02-20T18:07:17.204Z,72.27
2019-02-20T18:08:16.024Z,72.99
2019-02-20T18:09:16.003Z,72.68
2019-02-20T18:10:15.992Z,72.27
2019-02-20T18:11:15.986Z,71.83
2019-02-20T18:12:15.971Z,71.56
2019-02-20T18:13:15.974Z,71.52
2019-02-20T18:14:15.950Z,71.66
2019-02-20T18:15:15.948Z,71.42
2019-02-20T18:16:15.925Z,71.56
2019-02-20T18:17:15.919Z,71.52
2019-02-20T18:18:15.916Z,71.45
2019-02-20T18:19:15.950Z,71.42
2019-02-20T18:20:15.882Z,71.25
2019-02-20T18:21:15.879Z,71.35
2019-02-20T18:22:15.862Z,71.45
2019-02-20T18:23:15.861Z,71.66
2019-02-20T18:24:15.846Z,71.48
2019-02-20T18:25:15.827Z,71.35
2019-02-20T18:26:15.816Z,71.04
2019-02-20T18:27:15.811Z,71.56
2019-02-20T18:28:24.127Z,71.45
2019-02-20T18:29:16.788Z,71.66
2019-02-20T18:30:15.775Z,71.97
2019-02-20T18:31:15.767Z,72.20
2019-02-20T18:32:15.757Z,72.10
2019-02-20T18:33:15.757Z,72.41
2019-02-20T18:34:15.733Z,72.41
2019-02-20T18:35:15.727Z,72.72
2019-02-20T18:36:15.715Z,72.34
2019-02-20T18:37:15.700Z,73.06
2019-02-20T18:38:15.711Z,72.65
2019-02-20T18:39:15.688Z,72.55
2019-02-20T18:40:15.679Z,72.03
2019-02-20T18:41:15.655Z,72.44
2019-02-20T18:42:15.652Z,72.03
2019-02-20T18:43:15.670Z,71.90
2019-02-20T18:44:15.636Z,71.80
2019-02-20T18:45:15.628Z,71.69
2019-02-20T18:46:15.601Z,71.59
2019-02-20T18:47:15.593Z,71.59
2019-02-20T18:48:15.605Z,71.59
2019-02-20T18:49:15.580Z,71.93
2019-02-20T18:50:15.587Z,71.93
2019-02-20T18:51:15.548Z,72.10
2019-02-20T18:52:15.539Z,72.14
2019-02-20T18:53:15.561Z,72.24
2019-02-20T18:54:15.527Z,72.78
2019-02-20T18:55:15.508Z,73.50
2019-02-20T18:56:15.492Z,73.50
2019-02-20T18:57:15.487Z,73.91
2019-02-20T18:58:15.491Z,73.81
2019-02-20T18:59:15.461Z,73.61
2019-02-20T19:00:15.449Z,74.53
2019-02-20T19:01:15.451Z,74.57
2019-02-20T19:02:15.447Z,74.77
2019-02-20T19:03:15.447Z,75.32
2019-02-20T19:04:15.410Z,76.14
2019-02-20T19:05:15.400Z,75.63
2019-02-20T19:06:15.402Z,76.45
2019-02-20T19:07:15.384Z,76.69
2019-02-20T19:08:15.374Z,76.48
2019-02-20T19:09:15.374Z,76.79
2019-02-20T19:10:15.380Z,76.59
2019-02-20T19:11:15.344Z,77.20
2019-02-20T19:12:15.322Z,77.00
2019-02-20T19:13:15.363Z,77.20
2019-02-20T19:14:15.338Z,76.79
2019-02-20T19:15:15.297Z,76.69
2019-02-20T19:16:15.298Z,77.10
2019-02-20T19:17:15.273Z,76.93
2019-02-20T19:18:15.330Z,77.14
2019-02-20T19:19:15.266Z,76.48
2019-02-20T19:20:15.257Z,77.31
2019-02-20T19:21:15.258Z,77.03
2019-02-20T19:22:15.255Z,77.41
2019-02-20T19:23:15.206Z,77.51
2019-02-20T19:24:15.219Z,77.20
2019-02-20T19:25:15.190Z,76.79
2019-02-20T19:26:15.171Z,77.00
2019-02-20T19:27:15.162Z,77.10
2019-02-20T19:28:15.679Z,77.10
2019-02-20T19:29:15.169Z,76.90
2019-02-20T19:30:15.148Z,76.90
2019-02-20T19:31:15.122Z,77.31
2019-02-20T19:32:15.121Z,77.34
2019-02-20T19:33:15.147Z,77.20
2019-02-20T19:34:15.129Z,76.93
2019-02-20T19:35:15.091Z,77.24
2019-02-20T19:36:15.086Z,77.14
2019-02-20T19:37:15.143Z,77.24
2019-02-20T19:38:15.047Z,77.14
2019-02-20T19:39:15.106Z,77.24
2019-02-20T19:40:15.045Z,77.14
2019-02-20T19:41:15.017Z,77.96
2019-02-20T19:42:15.029Z,77.58
2019-02-20T19:43:14.993Z,77.89
2019-02-20T19:44:15.093Z,78.00
2019-02-20T19:45:14.980Z,78.10
2019-02-20T19:46:16.389Z,78.10
2019-02-20T19:47:14.951Z,78.41
2019-02-20T19:48:14.943Z,78.30
2019-02-20T19:49:14.961Z,78.41
2019-02-20T19:50:14.937Z,78.14
2019-02-20T19:51:14.942Z,78.10
2019-02-20T19:52:14.929Z,77.89
2019-02-20T19:53:14.886Z,77.89
2019-02-20T19:54:14.889Z,77.93
2019-02-20T19:55:14.891Z,78.10
2019-02-20T19:56:14.871Z,77.93
2019-02-20T19:57:14.864Z,78.34
2019-02-20T19:58:14.836Z,78.44
2019-02-20T19:59:14.867Z,77.89
2019-02-20T20:00:14.839Z,78.03
2019-02-20T20:01:15.322Z,78.24
2019-02-20T20:02:14.788Z,77.93
2019-02-20T20:03:14.800Z,78.14
2019-02-20T20:04:14.803Z,78.14
2019-02-20T20:05:14.774Z,78.00
2019-02-20T20:06:14.745Z,78.03
2019-02-20T20:07:14.768Z,78.00
2019-02-20T20:08:14.756Z,77.89
2019-02-20T20:09:14.762Z,77.93
2019-02-20T20:10:14.722Z,78.24
2019-02-20T20:11:14.726Z,78.03
2019-02-20T20:12:14.686Z,77.93
2019-02-20T20:13:14.673Z,77.93
2019-02-20T20:14:14.674Z,78.10
2019-02-20T20:15:14.893Z,78.03
2019-02-20T20:16:14.652Z,78.44
2019-02-20T20:17:14.701Z,78.44
2019-02-20T20:18:14.622Z,78.34
2019-02-20T20:19:14.656Z,78.34
2019-02-20T20:20:14.599Z,78.44
2019-02-20T20:21:14.618Z,78.55
2019-02-20T20:22:14.575Z,78.75
2019-02-20T20:23:14.575Z,78.69
2019-02-20T20:24:14.565Z,78.65
2019-02-20T20:25:14.544Z,78.86
2019-02-20T20:26:14.532Z,78.69
2019-02-20T20:27:14.533Z,78.89
2019-02-20T20:28:14.527Z,78.89
2019-02-20T20:29:14.516Z,79.00
2019-02-20T20:30:14.495Z,78.79
2019-02-20T20:31:14.484Z,78.79
2019-02-20T20:32:14.502Z,78.89
2019-02-20T20:33:14.494Z,78.79
2019-02-20T20:34:14.501Z,79.10
2019-02-20T20:35:15.698Z,78.79
2019-02-20T20:36:14.499Z,78.89
2019-02-20T20:37:14.702Z,78.89
2019-02-20T20:38:14.407Z,79.10
2019-02-20T20:39:14.510Z,79.20
2019-02-20T20:40:14.399Z,79.34
2019-02-20T20:41:14.376Z,79.00
2019-02-20T20:42:14.366Z,78.79
2019-02-20T20:43:14.352Z,79.24
2019-02-20T20:44:14.344Z,79.14
2019-02-20T20:45:14.382Z,79.10
2019-02-20T20:46:14.325Z,79.51
2019-02-20T20:47:14.311Z,79.30
2019-02-20T20:48:14.303Z,79.34
2019-02-20T20:49:14.294Z,79.34
2019-02-20T20:50:14.294Z,79.55
2019-02-20T20:51:14.284Z,79.86
2019-02-20T20:52:14.257Z,79.96
2019-02-20T20:53:14.245Z,80.06
2019-02-20T20:54:14.235Z,80.30
2019-02-20T20:55:14.251Z,80.06
2019-02-20T20:56:14.212Z,79.86
2019-02-20T20:57:14.217Z,79.65
2019-02-20T20:58:14.197Z,79.86
2019-02-20T20:59:17.708Z,79.65
2019-02-20T21:00:14.185Z,80.06
2019-02-20T21:01:14.168Z,79.55
2019-02-20T21:02:14.173Z,80.10
2019-02-20T21:03:14.138Z,79.96
2019-02-20T21:04:14.346Z,80.20
2019-02-20T21:05:14.134Z,80.27
2019-02-20T21:06:14.114Z,79.96
2019-02-20T21:07:14.100Z,79.96
2019-02-20T21:08:14.091Z,79.86
2019-02-20T21:09:14.077Z,79.96
2019-02-20T21:10:14.078Z,80.16
2019-02-20T21:11:14.055Z,80.10
2019-02-20T21:12:14.047Z,80.41
2019-02-20T21:13:14.033Z,80.41
2019-02-20T21:14:14.050Z,80.41
2019-02-20T21:15:14.027Z,80.51
2019-02-20T21:16:14.000Z,80.76
2019-02-20T21:17:15.937Z,80.72
2019-02-20T21:18:13.981Z,80.65
2019-02-20T21:19:21.223Z,80.62
2019-02-20T21:20:14.973Z,80.93
2019-02-20T21:21:14.002Z,80.72
2019-02-20T21:22:13.942Z,80.82
2019-02-20T21:23:13.963Z,80.41
2019-02-20T21:24:13.914Z,80.65
2019-02-20T21:25:14.607Z,80.93
2019-02-20T21:26:13.895Z,81.17
2019-02-20T21:27:13.884Z,81.17
2019-02-20T21:28:13.873Z,81.68
2019-02-20T21:29:13.911Z,81.68
2019-02-20T21:30:13.884Z,81.17
2019-02-20T21:31:13.844Z,81.03
2019-02-20T21:32:13.845Z,80.96
2019-02-20T21:33:13.834Z,81.48
2019-02-20T21:34:13.813Z,81.58
2019-02-20T21:35:13.804Z,81.82
2019-02-20T21:36:13.829Z,82.14
2019-02-20T21:37:13.781Z,81.93
2019-02-20T21:38:13.772Z,81.72
2019-02-20T21:39:13.762Z,82.14
2019-02-20T21:40:13.748Z,82.17
2019-02-20T21:41:13.747Z,82.89
2019-02-20T21:42:13.726Z,83.20
2019-02-20T21:43:13.730Z,82.89
2019-02-20T21:44:13.712Z,83.62
2019-02-20T21:45:13.697Z,83.51
2019-02-20T21:46:13.699Z,83.51
2019-02-20T21:47:13.680Z,83.20
2019-02-20T21:48:15.350Z,83.10
2019-02-20T21:49:15.176Z,82.79
2019-02-20T21:50:13.810Z,83.45
2019-02-20T21:51:13.645Z,83.41
2019-02-20T21:52:13.751Z,83.72
2019-02-20T21:53:13.611Z,83.20
2019-02-20T21:54:13.604Z,83.00
2019-02-20T21:55:13.590Z,83.31
2019-02-20T21:56:13.722Z,82.59
2019-02-20T21:57:13.648Z,83.31
2019-02-20T21:58:13.731Z,83.06
2019-02-20T21:59:13.633Z,82.75
2019-02-20T22:00:13.566Z,83.31
2019-02-20T22:01:13.540Z,83.20
2019-02-20T22:02:13.515Z,83.20
2019-02-20T22:03:13.712Z,83.17
2019-02-20T22:04:13.509Z,82.38
2019-02-20T22:05:13.514Z,82.79
2019-02-20T22:06:13.497Z,82.86
2019-02-20T22:07:13.483Z,83.06
2019-02-20T22:08:13.455Z,83.10
2019-02-20T22:09:13.442Z,83.00
2019-02-20T22:10:13.435Z,83.76
2019-02-20T22:11:13.424Z,83.45
2019-02-20T22:12:13.560Z,83.97
2019-02-20T22:13:13.392Z,84.07
2019-02-20T22:14:13.382Z,83.76
2019-02-20T22:15:14.768Z,84.28
2019-02-20T22:16:13.400Z,83.97
2019-02-20T22:17:13.349Z,84.07
2019-02-20T22:18:13.342Z,84.17
2019-02-20T22:19:13.329Z,83.86
2019-02-20T22:20:13.319Z,84.07
2019-02-20T22:21:13.310Z,83.97
2019-02-20T22:22:13.308Z,83.65
2019-02-20T22:23:13.287Z,83.86
2019-02-20T22:24:13.282Z,83.97
2019-02-20T22:25:13.284Z,84.28
2019-02-20T22:26:13.255Z,84.28
2019-02-20T22:27:13.256Z,84.63
2019-02-20T22:28:13.234Z,84.31
2019-02-20T22:29:13.220Z,85.14
2019-02-20T22:30:13.214Z,84.21
2019-02-20T22:31:13.258Z,84.11
2019-02-20T22:32:13.200Z,85.24
2019-02-20T22:33:13.181Z,84.42
2019-02-20T22:34:13.172Z,84.07
2019-02-20T22:35:13.171Z,84.52
2019-02-20T22:36:13.147Z,84.21
2019-02-20T22:37:13.152Z,84.21
2019-02-20T22:38:14.978Z,84.42
2019-02-20T22:39:13.126Z,84.11
2019-02-20T22:40:13.141Z,84.17
2019-02-20T22:41:13.093Z,84.94
2019-02-20T22:42:13.101Z,83.97
2019-02-20T22:43:13.074Z,84.11
2019-02-20T22:44:13.116Z,84.48
2019-02-20T22:45:13.079Z,83.97
2019-02-20T22:46:13.043Z,83.97
2019-02-20T22:47:13.046Z,84.17
2019-02-20T22:48:13.023Z,84.11
2019-02-20T22:49:13.009Z,84.63
2019-02-20T22:50:14.738Z,84.38
2019-02-20T22:51:12.989Z,84.42
2019-02-20T22:52:13.023Z,84.21
2019-02-20T22:53:12.968Z,84.21
2019-02-20T22:54:12.960Z,84.63
2019-02-20T22:55:12.951Z,84.11
2019-02-20T22:56:12.941Z,84.52
2019-02-20T22:57:12.929Z,84.63
2019-02-20T22:58:12.937Z,84.42
2019-02-20T22:59:12.904Z,84.42
2019-02-20T23:00:12.902Z,83.97
2019-02-20T23:01:12.885Z,84.17
2019-02-20T23:02:12.884Z,84.73
2019-02-20T23:03:12.882Z,84.07
2019-02-20T23:04:12.868Z,85.04
2019-02-20T23:05:12.845Z,85.04
2019-02-20T23:06:12.831Z,85.04
2019-02-20T23:07:12.829Z,85.14
2019-02-20T23:08:12.839Z,85.24
2019-02-20T23:09:12.808Z,84.94
2019-02-20T23:10:12.789Z,85.14
2019-02-20T23:11:12.777Z,85.14
2019-02-20T23:12:12.783Z,84.83
2019-02-20T23:13:12.776Z,85.28
2019-02-20T23:14:12.762Z,85.55
2019-02-20T23:15:12.739Z,85.66
2019-02-20T23:16:12.766Z,85.76
2019-02-20T23:17:12.714Z,85.35
2019-02-20T23:18:12.724Z,85.55
2019-02-20T23:19:12.700Z,85.55
2019-02-20T23:20:12.684Z,85.35
2019-02-20T23:21:12.673Z,85.35
2019-02-20T23:22:12.722Z,85.14
2019-02-20T23:23:12.674Z,85.24
2019-02-20T23:24:12.658Z,85.49
2019-02-20T23:25:12.640Z,85.39
2019-02-20T23:26:12.643Z,85.28
2019-02-20T23:27:12.625Z,85.45
2019-02-20T23:28:12.625Z,85.45
2019-02-20T23:29:12.613Z,84.94
2019-02-20T23:30:13.343Z,85.14
2019-02-20T23:31:12.581Z,85.24
2019-02-20T23:32:12.582Z,85.14
2019-02-20T23:33:12.579Z,85.08
2019-02-20T23:34:12.549Z,84.97
2019-02-20T23:35:12.540Z,85.28
2019-02-20T23:36:13.868Z,85.80
2019-02-20T23:37:34.551Z,85.70
2019-02-20T23:38:12.505Z,85.49
2019-02-20T23:39:12.483Z,85.80
2019-02-20T23:40:12.473Z,86.21
2019-02-20T23:41:12.464Z,86.11
2019-02-20T23:42:12.459Z,85.91
2019-02-20T23:43:12.457Z,85.70
2019-02-20T23:44:12.431Z,85.80
2019-02-20T23:45:12.427Z,85.91
2019-02-20T23:46:12.417Z,85.80
2019-02-20T23:47:12.410Z,86.21
2019-02-20T23:48:12.479Z,85.91
2019-02-20T23:49:12.380Z,85.91
2019-02-20T23:50:12.385Z,85.91
2019-02-20T23:51:12.370Z,85.91
2019-02-20T23:52:12.351Z,85.80
2019-02-20T23:53:12.340Z,85.66
2019-02-20T23:54:12.349Z,85.49
2019-02-20T23:55:12.322Z,85.49
2019-02-20T23:56:12.307Z,85.86
2019-02-20T23:57:12.314Z,85.24
2019-02-20T23:58:12.357Z,85.45
2019-02-20T23:59:13.930Z,85.39
